NCAR-RAP Real-Time Weather Data

Output produced by METARs form (17 December 2018  14:05 UTC)
found at http://weather.rap.ucar.edu/surface/
 
RJSY 171200Z 11005KT 070V150 8000 -SHRA FEW003 SCT008 BKN015 04/04 Q1005
RJSY 171144Z VRB01KT 4500 R09/0800VP2000D SHRA BR FEW001 SCT008 BKN015 04/04 Q1006 RMK 1ST001 3ST008 6CU015 A2972
RJSY 171100Z 08003KT 6000 -SHRA FEW003 SCT008 BKN015 04/04 Q1005
RJSY 171000Z 11004KT 6000 -SHRA FEW003 SCT010 BKN020 05/04 Q1005
RJSY 170917Z 09006KT 6000 -SHRA FEW005 SCT015 BKN020 05/04 Q1005 RMK 1ST005 3CU015 6CU020 A2969
RJSY 170900Z 09007KT 4000 -SHRA BR FEW003 SCT015 BKN020 05/04 Q1005
RJSY 170806Z 05002KT 3500 SHRA BR FEW008 SCT020 BKN030 05/05 Q1005 RMK 1ST008 4CU020 7CU030 A2969
RJSY 170800Z VRB01KT 5000 -SHRA BR FEW008 SCT020 BKN030 05/05 Q1005
RJSY 170700Z 13003KT 9999 -SHRA FEW015 SCT030 BKN040 06/05 Q1005
RJSY 170600Z 15005KT 9999 -SHRA FEW020 SCT030 BKN040 06/05 Q1004
RJSY 170500Z 15006KT 120V180 9999 -SHRA FEW020 SCT040 BKN050 06/06 Q1005
RJSY 170400Z 15006KT 8000 R09/P2000N -SHRA PRFG FEW001 SCT015 BKN045 06/06 Q1005
RJSY 170339Z 15004KT 110V180 0800 R09/P2000N -SHRA FG FEW001 SCT002 BKN003 06/05 Q1006 RMK 2ST001 4ST002 6ST003 A2971
RJSY 170300Z 10006KT 2000 -SHRA BCFG BR FEW001 SCT003 BKN007 05/05 Q1006
RJSY 170200Z 15002KT 8000 -SHRA VCFG FEW001 SCT020 BKN030 07/07 Q1008
RJSY 170137Z 17003KT 6000 -SHRA BCFG FEW001 SCT015 BKN025 06/06 Q1008 RMK 1ST001 3CU015 6CU025 A2978
RJSY 170100Z 11003KT 080V150 3500 -SHRA BCFG BR FEW001 SCT020 BKN030 05/05 Q1009
RJSY 170000Z 12003KT 070V170 8000 -SHRA FEW005 SCT020 BKN030 05/05 Q1009
RJSY 162325Z 15004KT 5000 -SHRA BR FEW007 SCT020 BKN030 06/05 Q1009 RMK 1ST007 3CU020 6CU030 A2982
RJSY 162300Z 13004KT 3500 -SHRA BR FEW003 SCT007 BKN015 05/05 Q1010
RJSY 162200Z VRB05KT 8000 -SHRA FEW007 SCT012 BKN020 06/05 Q1009
RJSY 161200Z 13007KT 9999 FEW030 BKN090 BKN/// 03/M01 Q1013
RJSY 161100Z 12006KT 9999 FEW030 SCT080 BKN100 02/00 Q1013
RJSY 161000Z 10007KT 9999 FEW070 SCT080 BKN100 02/00 Q1015
RJSY 160900Z 08010KT CAVOK 02/M01 Q1015
RJSY 160800Z 10009KT 080V170 CAVOK 03/M01 Q1016
RJSY 160700Z 09009KT 9999 FEW040 SCT150 BKN170 04/M01 Q1017
RJSY 160600Z 10008KT 9999 FEW040 SCT160 BKN180 04/00 Q1018
RJSY 160500Z 10009KT 9999 FEW040 SCT160 BKN180 06/01 Q1018
RJSY 160400Z 11006KT 080V140 9999 FEW040 BKN/// 07/01 Q1019
RJSY 160300Z 14006KT 100V190 9999 FEW040 BKN/// 08/01 Q1020
RJSY 160200Z 12005KT 9999 FEW030 BKN/// 06/01 Q1021
RJSY 160100Z VRB02KT 9999 FEW030 SCT160 BKN/// 05/01 Q1023
RJSY 160000Z 09005KT 9999 FEW030 SCT060 04/01 Q1023
RJSY 151200Z 28013KT 9999 FEW030 SCT040 BKN050 06/M03 Q1027
RJSY 151100Z 27016KT 9999 -SHSN FEW020 SCT040 BKN050 05/M01 Q1027
RJSY 151000Z 27014KT 9999 FEW025 SCT040 BKN050 06/M03 Q1027
RJSY 150900Z 29010KT 260V330 9999 -SHSN FEW015 SCT025 BKN045 04/M01 Q1027
RJSY 150800Z 30007KT 270V330 9999 -SHSN FEW015 SCT030 BKN050 04/M02 Q1027
RJSY 150700Z 28010KT 260V340 9999 -SHSN FEW025 SCT035 BKN050 04/M04 Q1027
RJSY 150600Z 29011KT 260V330 9999 VCSH FEW020 SCT040 BKN050 05/M06 Q1026
RJSY 150500Z 32011KT 280V360 9999 VCSH FEW015 SCT030 BKN050 04/M02 Q1026
RJSY 150400Z 30012G23KT 280V340 9999 -SHSN FEW015 SCT030 BKN050 03/M02 Q1026
RJSY 150300Z 31012G24KT 290V360 9999 -SHSN FEW015 SCT030 BKN050 04/M02 Q1026